sensor_id;sensor_type;location;lat;lon;timestamp;temperature;humidity
2463;DHT22;1243;54.298;10.172;2023-04-01T00:00:17;8.60;99.90
2463;DHT22;1243;54.298;10.172;2023-04-01T00:02:43;8.60;99.90
2463;DHT22;1243;54.298;10.172;2023-04-01T00:05:10;8.50;99.90
2463;DHT22;1243;54.298;10.172;2023-04-01T00:07:37;8.40;99.90
2463;DHT22;1243;54.298;10.172;2023-04-01T00:10:07;8.40;99.90
2463;DHT22;1243;54.298;10.172;2023-04-01T00:12:33;8.30;99.90
2463;DHT22;1243;54.298;10.172;2023-04-01T00:14:59;8.30;99.90
2463;DHT22;1243;54.298;10.172;2023-04-01T00:17:25;8.20;99.90
2463;DHT22;1243;54.298;10.172;2023-04-01T00:19:51;8.20;99.90
2463;DHT22;1243;54.298;10.172;2023-04-01T00:22:17;8.10;99.90
2463;DHT22;1243;54.298;10.172;2023-04-01T00:24:43;8.10;99.90
2463;DHT22;1243;54.298;10.172;2023-04-01T00:27:08;8.00;99.90
2463;DHT22;1243;54.298;10.172;2023-04-01T00:29:35;8.00;99.90
2463;DHT22;1243;54.298;10.172;2023-04-01T00:32:00;8.00;99.90
2463;DHT22;1243;54.298;10.172;2023-04-01T00:34:26;8.00;99.90
2463;DHT22;1243;54.298;10.172;2023-04-01T00:36:52;8.00;99.90
2463;DHT22;1243;54.298;10.172;2023-04-01T00:39:21;8.00;99.90
2463;DHT22;1243;54.298;10.172;2023-04-01T00:41:47;7.90;99.90
2463;DHT22;1243;54.298;10.172;2023-04-01T00:44:24;7.90;99.90
2463;DHT22;1243;54.298;10.172;2023-04-01T00:46:50;7.90;99.90
2463;DHT22;1243;54.298;10.172;2023-04-01T00:49:19;7.80;99.90
2463;DHT22;1243;54.298;10.172;2023-04-01T00:51:49;7.80;99.90
2463;DHT22;1243;54.298;10.172;2023-04-01T00:54:16;7.80;99.90
2463;DHT22;1243;54.298;10.172;2023-04-01T00:56:49;7.70;99.90
2463;DHT22;1243;54.298;10.172;2023-04-01T00:59:21;7.70;99.90
2463;DHT22;1243;54.298;10.172;2023-04-01T01:01:48;7.70;99.90
2463;DHT22;1243;54.298;10.172;2023-04-01T01:04:30;7.60;99.90
2463;DHT22;1243;54.298;10.172;2023-04-01T01:09:55;7.50;99.90
2463;DHT22;1243;54.298;10.172;2023-04-01T01:13:06;7.50;99.90
2463;DHT22;1243;54.298;10.172;2023-04-01T01:15:34;7.40;99.90
2463;DHT22;1243;54.298;10.172;2023-04-01T01:18:33;7.40;99.90
2463;DHT22;1243;54.298;10.172;2023-04-01T01:27:29;7.40;99.90
2463;DHT22;1243;54.298;10.172;2023-04-01T01:29:59;7.40;99.90
2463;DHT22;1243;54.298;10.172;2023-04-01T01:35:26;7.30;99.90
2463;DHT22;1243;54.298;10.172;2023-04-01T01:38:21;7.20;99.90
2463;DHT22;1243;54.298;10.172;2023-04-01T01:40:50;7.10;99.90
2463;DHT22;1243;54.298;10.172;2023-04-01T01:43:22;7.10;99.90
2463;DHT22;1243;54.298;10.172;2023-04-01T01:45:54;7.10;99.90
2463;DHT22;1243;54.298;10.172;2023-04-01T01:48:22;7.10;99.90
2463;DHT22;1243;54.298;10.172;2023-04-01T01:50:49;7.00;99.90
2463;DHT22;1243;54.298;10.172;2023-04-01T01:53:15;7.00;99.90
2463;DHT22;1243;54.298;10.172;2023-04-01T01:55:43;6.90;99.90
2463;DHT22;1243;54.298;10.172;2023-04-01T01:58:11;6.90;99.90
2463;DHT22;1243;54.298;10.172;2023-04-01T02:00:39;6.90;99.90
2463;DHT22;1243;54.298;10.172;2023-04-01T02:03:06;7.00;99.90
2463;DHT22;1243;54.298;10.172;2023-04-01T02:05:32;6.90;99.90
2463;DHT22;1243;54.298;10.172;2023-04-01T02:08:08;6.90;99.90
2463;DHT22;1243;54.298;10.172;2023-04-01T02:10:38;6.80;99.90
2463;DHT22;1243;54.298;10.172;2023-04-01T02:13:22;6.80;99.90
2463;DHT22;1243;54.298;10.172;2023-04-01T02:15:53;6.70;99.90
2463;DHT22;1243;54.298;10.172;2023-04-01T02:18:22;6.70;99.90
2463;DHT22;1243;54.298;10.172;2023-04-01T02:20:49;6.60;99.90
2463;DHT22;1243;54.298;10.172;2023-04-01T02:23:15;6.60;99.90
2463;DHT22;1243;54.298;10.172;2023-04-01T02:25:42;6.60;99.90
2463;DHT22;1243;54.298;10.172;2023-04-01T02:28:09;6.60;99.90
2463;DHT22;1243;54.298;10.172;2023-04-01T02:30:37;6.60;99.90
2463;DHT22;1243;54.298;10.172;2023-04-01T02:33:06;6.50;99.90
2463;DHT22;1243;54.298;10.172;2023-04-01T02:35:34;6.50;99.90
2463;DHT22;1243;54.298;10.172;2023-04-01T02:38:01;6.50;99.90
2463;DHT22;1243;54.298;10.172;2023-04-01T02:40:26;6.40;99.90
2463;DHT22;1243;54.298;10.172;2023-04-01T02:42:52;6.40;99.90
2463;DHT22;1243;54.298;10.172;2023-04-01T02:45:18;6.30;99.90
2463;DHT22;1243;54.298;10.172;2023-04-01T02:47:44;6.30;99.90
2463;DHT22;1243;54.298;10.172;2023-04-01T02:50:10;6.30;99.90
2463;DHT22;1243;54.298;10.172;2023-04-01T02:52:36;6.30;99.90
2463;DHT22;1243;54.298;10.172;2023-04-01T02:55:03;6.30;99.90
2463;DHT22;1243;54.298;10.172;2023-04-01T02:57:30;6.20;99.90
2463;DHT22;1243;54.298;10.172;2023-04-01T02:59:55;6.20;99.90
2463;DHT22;1243;54.298;10.172;2023-04-01T03:02:21;6.10;99.90
2463;DHT22;1243;54.298;10.172;2023-04-01T03:04:47;6.10;99.90
2463;DHT22;1243;54.298;10.172;2023-04-01T03:07:13;6.10;99.90
2463;DHT22;1243;54.298;10.172;2023-04-01T03:09:38;6.10;99.90
2463;DHT22;1243;54.298;10.172;2023-04-01T03:12:05;6.10;99.90
2463;DHT22;1243;54.298;10.172;2023-04-01T03:14:31;6.00;99.90
2463;DHT22;1243;54.298;10.172;2023-04-01T03:16:57;6.00;99.90
2463;DHT22;1243;54.298;10.172;2023-04-01T03:19:23;6.00;99.90
2463;DHT22;1243;54.298;10.172;2023-04-01T03:21:48;6.00;99.90
2463;DHT22;1243;54.298;10.172;2023-04-01T03:24:14;6.00;99.90
2463;DHT22;1243;54.298;10.172;2023-04-01T03:26:40;6.00;99.90
2463;DHT22;1243;54.298;10.172;2023-04-01T03:29:05;5.90;99.90
2463;DHT22;1243;54.298;10.172;2023-04-01T03:31:31;5.90;99.90
2463;DHT22;1243;54.298;10.172;2023-04-01T03:33:57;5.90;99.90
2463;DHT22;1243;54.298;10.172;2023-04-01T03:36:23;6.00;99.90
2463;DHT22;1243;54.298;10.172;2023-04-01T03:38:49;5.90;99.90
2463;DHT22;1243;54.298;10.172;2023-04-01T03:41:16;5.80;99.90
2463;DHT22;1243;54.298;10.172;2023-04-01T03:43:42;5.80;99.90
2463;DHT22;1243;54.298;10.172;2023-04-01T03:46:08;5.90;99.90
2463;DHT22;1243;54.298;10.172;2023-04-01T03:48:34;5.80;99.90
2463;DHT22;1243;54.298;10.172;2023-04-01T03:51:00;5.80;99.90
2463;DHT22;1243;54.298;10.172;2023-04-01T03:53:26;5.80;99.90
2463;DHT22;1243;54.298;10.172;2023-04-01T03:55:52;5.80;99.90
2463;DHT22;1243;54.298;10.172;2023-04-01T03:58:18;5.80;99.90
2463;DHT22;1243;54.298;10.172;2023-04-01T04:00:44;5.80;99.90
2463;DHT22;1243;54.298;10.172;2023-04-01T04:03:10;5.70;99.90
2463;DHT22;1243;54.298;10.172;2023-04-01T04:05:36;5.70;99.90
2463;DHT22;1243;54.298;10.172;2023-04-01T04:08:03;5.70;99.90
2463;DHT22;1243;54.298;10.172;2023-04-01T04:10:28;5.70;99.90
2463;DHT22;1243;54.298;10.172;2023-04-01T04:12:55;5.60;99.90
2463;DHT22;1243;54.298;10.172;2023-04-01T04:15:21;5.60;99.90
2463;DHT22;1243;54.298;10.172;2023-04-01T04:17:47;5.60;99.90
2463;DHT22;1243;54.298;10.172;2023-04-01T04:20:13;5.50;99.90
2463;DHT22;1243;54.298;10.172;2023-04-01T04:22:39;5.50;99.90
2463;DHT22;1243;54.298;10.172;2023-04-01T04:25:05;5.50;99.90
2463;DHT22;1243;54.298;10.172;2023-04-01T04:27:31;5.50;99.90
2463;DHT22;1243;54.298;10.172;2023-04-01T04:29:57;5.50;99.90
2463;DHT22;1243;54.298;10.172;2023-04-01T04:32:23;5.50;99.90
2463;DHT22;1243;54.298;10.172;2023-04-01T04:34:48;5.50;99.90
2463;DHT22;1243;54.298;10.172;2023-04-01T04:37:14;5.50;99.90
2463;DHT22;1243;54.298;10.172;2023-04-01T04:39:40;5.50;99.90
2463;DHT22;1243;54.298;10.172;2023-04-01T04:42:05;5.50;99.90
2463;DHT22;1243;54.298;10.172;2023-04-01T04:44:31;5.50;99.90
2463;DHT22;1243;54.298;10.172;2023-04-01T04:46:57;5.50;99.90
2463;DHT22;1243;54.298;10.172;2023-04-01T04:49:22;5.40;99.90
2463;DHT22;1243;54.298;10.172;2023-04-01T04:51:48;5.40;99.90
2463;DHT22;1243;54.298;10.172;2023-04-01T04:54:14;5.40;99.90
2463;DHT22;1243;54.298;10.172;2023-04-01T04:56:40;5.40;99.90
2463;DHT22;1243;54.298;10.172;2023-04-01T04:59:06;5.40;99.90
2463;DHT22;1243;54.298;10.172;2023-04-01T05:01:32;5.40;99.90
2463;DHT22;1243;54.298;10.172;2023-04-01T05:03:59;5.40;99.90
2463;DHT22;1243;54.298;10.172;2023-04-01T05:06:25;5.40;99.90
2463;DHT22;1243;54.298;10.172;2023-04-01T05:08:51;5.40;99.90
2463;DHT22;1243;54.298;10.172;2023-04-01T05:11:18;5.40;99.90
2463;DHT22;1243;54.298;10.172;2023-04-01T05:13:45;5.30;99.90
2463;DHT22;1243;54.298;10.172;2023-04-01T05:16:17;5.30;99.90
2463;DHT22;1243;54.298;10.172;2023-04-01T05:18:43;5.30;99.90
2463;DHT22;1243;54.298;10.172;2023-04-01T05:21:10;5.30;99.90
2463;DHT22;1243;54.298;10.172;2023-04-01T05:23:36;5.40;99.90
2463;DHT22;1243;54.298;10.172;2023-04-01T05:26:07;5.40;99.90
2463;DHT22;1243;54.298;10.172;2023-04-01T05:28:33;5.30;99.90
2463;DHT22;1243;54.298;10.172;2023-04-01T05:30:59;5.40;99.90
2463;DHT22;1243;54.298;10.172;2023-04-01T05:33:26;5.40;99.90
2463;DHT22;1243;54.298;10.172;2023-04-01T05:35:53;5.30;99.90
2463;DHT22;1243;54.298;10.172;2023-04-01T05:38:19;5.30;99.90
2463;DHT22;1243;54.298;10.172;2023-04-01T05:40:44;5.40;99.90
2463;DHT22;1243;54.298;10.172;2023-04-01T05:43:11;5.40;99.90
2463;DHT22;1243;54.298;10.172;2023-04-01T05:45:36;5.40;99.90
2463;DHT22;1243;54.298;10.172;2023-04-01T05:48:02;5.30;99.90
2463;DHT22;1243;54.298;10.172;2023-04-01T05:50:28;5.30;99.90
2463;DHT22;1243;54.298;10.172;2023-04-01T05:52:54;5.30;99.90
2463;DHT22;1243;54.298;10.172;2023-04-01T05:55:20;5.30;99.90
2463;DHT22;1243;54.298;10.172;2023-04-01T05:57:46;5.30;99.90
2463;DHT22;1243;54.298;10.172;2023-04-01T06:00:14;5.30;99.90
2463;DHT22;1243;54.298;10.172;2023-04-01T06:02:40;5.30;99.90
2463;DHT22;1243;54.298;10.172;2023-04-01T06:05:24;5.40;99.90
2463;DHT22;1243;54.298;10.172;2023-04-01T06:07:58;5.40;99.90
2463;DHT22;1243;54.298;10.172;2023-04-01T06:10:36;5.30;99.90
2463;DHT22;1243;54.298;10.172;2023-04-01T06:13:09;5.40;99.90
2463;DHT22;1243;54.298;10.172;2023-04-01T06:15:56;5.30;99.90
2463;DHT22;1243;54.298;10.172;2023-04-01T06:21:22;5.40;99.90
2463;DHT22;1243;54.298;10.172;2023-04-01T06:26:35;5.40;99.90
2463;DHT22;1243;54.298;10.172;2023-04-01T06:35:03;5.30;99.90
2463;DHT22;1243;54.298;10.172;2023-04-01T06:37:38;5.30;99.90
2463;DHT22;1243;54.298;10.172;2023-04-01T06:43:05;5.30;99.90
2463;DHT22;1243;54.298;10.172;2023-04-01T06:51:20;5.30;99.90
2463;DHT22;1243;54.298;10.172;2023-04-01T06:56:25;5.30;99.90
2463;DHT22;1243;54.298;10.172;2023-04-01T06:58:59;5.30;99.90
2463;DHT22;1243;54.298;10.172;2023-04-01T07:01:38;5.30;99.90
2463;DHT22;1243;54.298;10.172;2023-04-01T07:06:43;5.30;99.90
2463;DHT22;1243;54.298;10.172;2023-04-01T07:09:14;5.30;99.90
2463;DHT22;1243;54.298;10.172;2023-04-01T07:11:42;5.30;99.90
2463;DHT22;1243;54.298;10.172;2023-04-01T07:16:53;5.30;99.90
2463;DHT22;1243;54.298;10.172;2023-04-01T07:19:33;5.30;99.90
2463;DHT22;1243;54.298;10.172;2023-04-01T07:22:09;5.30;99.90
2463;DHT22;1243;54.298;10.172;2023-04-01T07:24:40;5.40;99.90
2463;DHT22;1243;54.298;10.172;2023-04-01T07:27:13;5.30;99.90
2463;DHT22;1243;54.298;10.172;2023-04-01T07:29:39;5.30;99.90
2463;DHT22;1243;54.298;10.172;2023-04-01T07:42:51;5.30;99.90
2463;DHT22;1243;54.298;10.172;2023-04-01T07:45:30;5.30;99.90
2463;DHT22;1243;54.298;10.172;2023-04-01T07:51:02;5.30;99.90
2463;DHT22;1243;54.298;10.172;2023-04-01T07:56:18;5.30;99.90
2463;DHT22;1243;54.298;10.172;2023-04-01T07:59:11;5.40;99.90
2463;DHT22;1243;54.298;10.172;2023-04-01T08:06:53;5.40;99.90
2463;DHT22;1243;54.298;10.172;2023-04-01T08:20:33;5.20;99.90
2463;DHT22;1243;54.298;10.172;2023-04-01T08:23:24;5.20;99.90
2463;DHT22;1243;54.298;10.172;2023-04-01T08:28:44;5.30;99.90
2463;DHT22;1243;54.298;10.172;2023-04-01T08:31:31;5.30;99.90
2463;DHT22;1243;54.298;10.172;2023-04-01T08:33:58;5.30;99.90
2463;DHT22;1243;54.298;10.172;2023-04-01T08:36:38;5.40;99.90
2463;DHT22;1243;54.298;10.172;2023-04-01T08:39:34;5.40;99.90
2463;DHT22;1243;54.298;10.172;2023-04-01T08:53:00;5.20;99.90
2463;DHT22;1243;54.298;10.172;2023-04-01T09:04:36;5.10;99.90
2463;DHT22;1243;54.298;10.172;2023-04-01T09:19:05;5.10;99.90
2463;DHT22;1243;54.298;10.172;2023-04-01T09:38:57;4.90;99.90
2463;DHT22;1243;54.298;10.172;2023-04-01T09:41:36;5.00;99.90
2463;DHT22;1243;54.298;10.172;2023-04-01T09:44:34;5.00;99.90
2463;DHT22;1243;54.298;10.172;2023-04-01T09:52:53;4.80;99.90
2463;DHT22;1243;54.298;10.172;2023-04-01T10:27:20;4.70;99.90
2463;DHT22;1243;54.298;10.172;2023-04-01T10:57:38;4.30;99.90
2463;DHT22;1243;54.298;10.172;2023-04-01T11:00:30;4.30;99.90
2463;DHT22;1243;54.298;10.172;2023-04-01T11:26:23;4.40;99.90
2463;DHT22;1243;54.298;10.172;2023-04-01T11:32:01;4.30;99.90
2463;DHT22;1243;54.298;10.172;2023-04-01T11:47:40;4.40;99.90
2463;DHT22;1243;54.298;10.172;2023-04-01T11:56:11;4.50;99.90
2463;DHT22;1243;54.298;10.172;2023-04-01T12:12:46;4.60;99.90
2463;DHT22;1243;54.298;10.172;2023-04-01T12:15:26;4.70;99.90
2463;DHT22;1243;54.298;10.172;2023-04-01T12:18:22;4.70;99.90
2463;DHT22;1243;54.298;10.172;2023-04-01T12:23:35;4.70;99.90
2463;DHT22;1243;54.298;10.172;2023-04-01T12:42:12;4.70;99.90
2463;DHT22;1243;54.298;10.172;2023-04-01T12:44:50;4.70;99.90
2463;DHT22;1243;54.298;10.172;2023-04-01T12:52:54;4.50;99.90
2463;DHT22;1243;54.298;10.172;2023-04-01T13:01:36;4.60;99.90
2463;DHT22;1243;54.298;10.172;2023-04-01T13:16:27;4.60;99.90
2463;DHT22;1243;54.298;10.172;2023-04-01T13:19:17;4.70;99.90
2463;DHT22;1243;54.298;10.172;2023-04-01T13:22:20;4.70;99.90
2463;DHT22;1243;54.298;10.172;2023-04-01T13:24:49;4.60;99.90
2463;DHT22;1243;54.298;10.172;2023-04-01T13:27:45;4.60;99.90
2463;DHT22;1243;54.298;10.172;2023-04-01T13:30:39;4.60;99.90
2463;DHT22;1243;54.298;10.172;2023-04-01T13:33:25;4.60;99.90
2463;DHT22;1243;54.298;10.172;2023-04-01T13:36:14;4.60;97.50
2463;DHT22;1243;54.298;10.172;2023-04-01T13:41:58;4.60;77.30
2463;DHT22;1243;54.298;10.172;2023-04-01T13:44:40;4.70;77.20
2463;DHT22;1243;54.298;10.172;2023-04-01T13:53:17;4.60;28.20
2463;DHT22;1243;54.298;10.172;2023-04-01T13:58:38;4.40;12.10
2463;DHT22;1243;54.298;10.172;2023-04-01T14:01:15;4.50;4.10
2463;DHT22;1243;54.298;10.172;2023-04-01T14:06:49;4.40;1.00
2463;DHT22;1243;54.298;10.172;2023-04-01T14:28:39;4.40;1.00
2463;DHT22;1243;54.298;10.172;2023-04-01T14:42:23;4.20;1.00
2463;DHT22;1243;54.298;10.172;2023-04-01T14:50:22;4.30;1.00
2463;DHT22;1243;54.298;10.172;2023-04-01T14:58:11;4.20;1.00
2463;DHT22;1243;54.298;10.172;2023-04-01T15:09:51;4.30;1.00
2463;DHT22;1243;54.298;10.172;2023-04-01T15:12:29;4.30;1.00
2463;DHT22;1243;54.298;10.172;2023-04-01T15:15:16;4.30;1.00
2463;DHT22;1243;54.298;10.172;2023-04-01T15:23:51;4.20;1.00
2463;DHT22;1243;54.298;10.172;2023-04-01T15:29:43;4.20;1.00
2463;DHT22;1243;54.298;10.172;2023-04-01T15:43:50;4.50;99.90
2463;DHT22;1243;54.298;10.172;2023-04-01T15:49:13;4.70;99.90
2463;DHT22;1243;54.298;10.172;2023-04-01T16:02:30;4.50;99.90
2463;DHT22;1243;54.298;10.172;2023-04-01T16:15:44;4.50;99.90
2463;DHT22;1243;54.298;10.172;2023-04-01T16:18:38;4.60;99.90
2463;DHT22;1243;54.298;10.172;2023-04-01T16:21:14;4.60;99.90
2463;DHT22;1243;54.298;10.172;2023-04-01T16:23:42;4.40;99.90
2463;DHT22;1243;54.298;10.172;2023-04-01T16:36:50;4.30;99.90
2463;DHT22;1243;54.298;10.172;2023-04-01T16:39:28;4.30;99.90
2463;DHT22;1243;54.298;10.172;2023-04-01T16:50:56;4.20;99.90
2463;DHT22;1243;54.298;10.172;2023-04-01T16:56:17;4.10;99.90
2463;DHT22;1243;54.298;10.172;2023-04-01T17:03:57;4.20;99.90
2463;DHT22;1243;54.298;10.172;2023-04-01T17:27:47;3.80;99.90
2463;DHT22;1243;54.298;10.172;2023-04-01T17:30:27;3.80;99.90
2463;DHT22;1243;54.298;10.172;2023-04-01T17:33:20;3.80;99.90
2463;DHT22;1243;54.298;10.172;2023-04-01T17:36:25;3.70;99.90
2463;DHT22;1243;54.298;10.172;2023-04-01T17:41:57;3.60;99.90
2463;DHT22;1243;54.298;10.172;2023-04-01T17:44:45;3.60;99.90
2463;DHT22;1243;54.298;10.172;2023-04-01T17:47:23;3.60;99.90
2463;DHT22;1243;54.298;10.172;2023-04-01T17:55:56;3.40;99.90
2463;DHT22;1243;54.298;10.172;2023-04-01T17:58:45;3.40;99.90
2463;DHT22;1243;54.298;10.172;2023-04-01T18:01:32;3.40;99.90
2463;DHT22;1243;54.298;10.172;2023-04-01T18:04:24;3.30;99.90
2463;DHT22;1243;54.298;10.172;2023-04-01T18:21:09;3.20;99.90
2463;DHT22;1243;54.298;10.172;2023-04-01T18:23:40;3.20;99.90
2463;DHT22;1243;54.298;10.172;2023-04-01T18:29:18;3.20;99.90
2463;DHT22;1243;54.298;10.172;2023-04-01T18:32:06;3.20;99.90
2463;DHT22;1243;54.298;10.172;2023-04-01T18:35:17;3.10;99.90
2463;DHT22;1243;54.298;10.172;2023-04-01T18:37:59;3.10;99.90
2463;DHT22;1243;54.298;10.172;2023-04-01T18:40:34;3.10;99.90
2463;DHT22;1243;54.298;10.172;2023-04-01T18:43:29;3.10;99.90
2463;DHT22;1243;54.298;10.172;2023-04-01T18:46:17;3.10;99.90
2463;DHT22;1243;54.298;10.172;2023-04-01T18:48:52;3.00;99.90
2463;DHT22;1243;54.298;10.172;2023-04-01T18:59:11;3.00;99.90
2463;DHT22;1243;54.298;10.172;2023-04-01T19:04:41;3.00;99.90
2463;DHT22;1243;54.298;10.172;2023-04-01T19:16:09;2.90;99.90
2463;DHT22;1243;54.298;10.172;2023-04-01T19:22:12;2.90;99.90
2463;DHT22;1243;54.298;10.172;2023-04-01T19:24:56;2.90;99.90
2463;DHT22;1243;54.298;10.172;2023-04-01T19:27:35;2.80;99.90
2463;DHT22;1243;54.298;10.172;2023-04-01T19:35:34;2.80;99.90
2463;DHT22;1243;54.298;10.172;2023-04-01T19:41:25;2.80;99.90
2463;DHT22;1243;54.298;10.172;2023-04-01T19:46:29;2.80;99.90
2463;DHT22;1243;54.298;10.172;2023-04-01T19:49:01;2.70;99.90
2463;DHT22;1243;54.298;10.172;2023-04-01T19:59:54;2.80;99.90
2463;DHT22;1243;54.298;10.172;2023-04-01T20:05:51;2.70;99.90
2463;DHT22;1243;54.298;10.172;2023-04-01T20:08:40;2.70;99.90
2463;DHT22;1243;54.298;10.172;2023-04-01T20:20:18;2.80;99.90
2463;DHT22;1243;54.298;10.172;2023-04-01T20:27:39;2.70;99.90
2463;DHT22;1243;54.298;10.172;2023-04-01T20:30:32;2.70;99.90
2463;DHT22;1243;54.298;10.172;2023-04-01T20:36:09;2.70;99.90
2463;DHT22;1243;54.298;10.172;2023-04-01T20:42:27;2.80;99.90
2463;DHT22;1243;54.298;10.172;2023-04-01T20:50:59;2.70;99.90
2463;DHT22;1243;54.298;10.172;2023-04-01T20:53:36;2.80;99.90
2463;DHT22;1243;54.298;10.172;2023-04-01T20:56:35;2.80;99.90
2463;DHT22;1243;54.298;10.172;2023-04-01T21:07:37;2.80;99.90
2463;DHT22;1243;54.298;10.172;2023-04-01T21:29:40;2.80;89.90
2463;DHT22;1243;54.298;10.172;2023-04-01T21:35:25;2.80;89.90
2463;DHT22;1243;54.298;10.172;2023-04-01T21:38:06;2.80;89.90
2463;DHT22;1243;54.298;10.172;2023-04-01T21:43:24;2.80;89.30
2463;DHT22;1243;54.298;10.172;2023-04-01T22:05:11;2.80;72.00
2463;DHT22;1243;54.298;10.172;2023-04-01T22:07:55;2.80;68.80
2463;DHT22;1243;54.298;10.172;2023-04-01T22:10:51;2.80;69.70
2463;DHT22;1243;54.298;10.172;2023-04-01T22:13:36;2.80;65.20
2463;DHT22;1243;54.298;10.172;2023-04-01T22:17:06;2.80;62.40
2463;DHT22;1243;54.298;10.172;2023-04-01T22:27:33;2.70;68.90
2463;DHT22;1243;54.298;10.172;2023-04-01T22:30:17;2.80;68.60
2463;DHT22;1243;54.298;10.172;2023-04-01T22:32:46;2.70;62.80
2463;DHT22;1243;54.298;10.172;2023-04-01T22:35:23;2.70;62.50
2463;DHT22;1243;54.298;10.172;2023-04-01T22:44:03;2.80;69.90
2463;DHT22;1243;54.298;10.172;2023-04-01T22:46:53;2.70;66.60
2463;DHT22;1243;54.298;10.172;2023-04-01T22:49:38;2.80;66.10
2463;DHT22;1243;54.298;10.172;2023-04-01T22:54:46;2.70;63.60
2463;DHT22;1243;54.298;10.172;2023-04-01T23:00:22;2.80;64.90
2463;DHT22;1243;54.298;10.172;2023-04-01T23:03:22;2.70;65.10
2463;DHT22;1243;54.298;10.172;2023-04-01T23:06:01;2.70;63.70
2463;DHT22;1243;54.298;10.172;2023-04-01T23:11:13;2.70;60.90
2463;DHT22;1243;54.298;10.172;2023-04-01T23:14:05;2.70;59.80
2463;DHT22;1243;54.298;10.172;2023-04-01T23:24:55;2.70;48.00
2463;DHT22;1243;54.298;10.172;2023-04-01T23:27:33;2.80;46.40
2463;DHT22;1243;54.298;10.172;2023-04-01T23:30:03;2.70;43.90
2463;DHT22;1243;54.298;10.172;2023-04-01T23:32:29;2.70;43.70
2463;DHT22;1243;54.298;10.172;2023-04-01T23:34:57;2.70;40.80
2463;DHT22;1243;54.298;10.172;2023-04-01T23:37:23;2.70;40.00
2463;DHT22;1243;54.298;10.172;2023-04-01T23:42:27;2.60;40.50
2463;DHT22;1243;54.298;10.172;2023-04-01T23:45:03;2.70;41.10
2463;DHT22;1243;54.298;10.172;2023-04-01T23:47:35;2.70;39.40
2463;DHT22;1243;54.298;10.172;2023-04-01T23:50:13;2.70;44.20
2463;DHT22;1243;54.298;10.172;2023-04-01T23:52:47;2.70;46.60
2463;DHT22;1243;54.298;10.172;2023-04-01T23:55:25;2.70;42.60
